createdAt,value
2022-09-06T00:00:31.757Z,2.40
2022-09-06T00:03:00.240Z,1.70
2022-09-06T00:05:31.268Z,2.00
2022-09-06T00:07:59.995Z,2.30
2022-09-06T00:10:29.131Z,1.83
2022-09-06T00:13:01.473Z,2.03
2022-09-06T00:15:30.101Z,2.30
2022-09-06T00:18:01.301Z,1.90
2022-09-06T00:20:33.225Z,2.30
2022-09-06T00:23:03.527Z,1.93
2022-09-06T00:25:34.577Z,1.70
2022-09-06T00:28:04.492Z,2.15
2022-09-06T00:30:34.545Z,1.97
2022-09-06T00:33:02.831Z,1.90
2022-09-06T00:35:32.795Z,2.10
2022-09-06T00:38:03.182Z,1.70
2022-09-06T00:40:35.359Z,1.80
2022-09-06T00:43:05.451Z,2.30
2022-09-06T00:45:34.406Z,2.30
2022-09-06T00:48:03.630Z,1.97
2022-09-06T00:50:33.627Z,1.87
2022-09-06T00:53:02.080Z,2.07
2022-09-06T00:55:30.806Z,2.10
2022-09-06T00:58:00.789Z,2.00
2022-09-06T01:00:29.022Z,1.90
2022-09-06T01:02:57.030Z,2.07
2022-09-06T01:05:35.059Z,2.13
2022-09-06T01:08:14.979Z,1.77
2022-09-06T01:11:02.003Z,1.97
2022-09-06T01:13:40.408Z,2.10
2022-09-06T01:16:14.282Z,1.80
2022-09-06T01:18:59.855Z,2.10
2022-09-06T01:21:41.931Z,1.97
2022-09-06T01:24:54.439Z,1.77
2022-09-06T01:27:59.059Z,2.10
2022-09-06T01:30:27.298Z,1.85
2022-09-06T01:33:00.537Z,1.80
2022-09-06T01:35:35.580Z,2.37
2022-09-06T01:38:05.007Z,2.00
2022-09-06T01:40:38.071Z,2.20
2022-09-06T01:43:13.171Z,2.10
2022-09-06T01:45:52.786Z,2.43
2022-09-06T01:48:31.403Z,2.20
2022-09-06T01:51:12.444Z,2.20
2022-09-06T01:54:06.937Z,2.00
2022-09-06T01:56:47.315Z,2.00
2022-09-06T01:59:42.588Z,2.63
2022-09-06T02:02:16.595Z,2.70
2022-09-06T02:04:48.048Z,2.30
2022-09-06T02:07:21.755Z,2.20
2022-09-06T02:09:55.976Z,2.10
2022-09-06T02:12:27.571Z,2.70
2022-09-06T02:15:03.065Z,2.30
2022-09-06T02:17:34.235Z,2.60
2022-09-06T02:20:08.390Z,2.30
2022-09-06T02:22:41.218Z,2.57
2022-09-06T02:25:13.324Z,2.20
2022-09-06T02:27:41.801Z,2.20
2022-09-06T02:30:13.647Z,2.30
2022-09-06T02:32:45.910Z,2.37
2022-09-06T02:35:18.689Z,2.20
2022-09-06T02:37:48.494Z,2.27
2022-09-06T02:40:16.877Z,2.40
2022-09-06T02:42:45.361Z,2.30
2022-09-06T02:45:15.579Z,2.23
2022-09-06T02:47:44.900Z,2.20
2022-09-06T02:50:13.467Z,2.23
2022-09-06T02:52:42.627Z,2.40
2022-09-06T02:55:11.484Z,2.60
2022-09-06T02:57:39.692Z,2.50
2022-09-06T03:00:09.051Z,2.63
2022-09-06T03:02:38.851Z,2.43
2022-09-06T03:05:07.694Z,2.80
2022-09-06T03:07:36.316Z,2.73
2022-09-06T03:10:06.392Z,2.90
2022-09-06T03:12:35.285Z,3.03
2022-09-06T03:15:04.290Z,2.50
2022-09-06T03:17:34.127Z,2.87
2022-09-06T03:20:04.627Z,2.67
2022-09-06T03:22:37.977Z,3.00
2022-09-06T03:25:07.697Z,2.80
2022-09-06T03:27:36.926Z,2.83
2022-09-06T03:30:06.236Z,2.97
2022-09-06T03:32:34.853Z,2.67
2022-09-06T03:35:06.557Z,2.60
2022-09-06T03:37:35.794Z,2.80
2022-09-06T03:40:05.461Z,2.83
2022-09-06T03:42:34.378Z,2.70
2022-09-06T03:45:03.192Z,3.03
2022-09-06T03:47:31.688Z,3.10
2022-09-06T03:50:00.335Z,2.57
2022-09-06T03:52:37.648Z,2.73
2022-09-06T03:55:11.688Z,2.80
2022-09-06T03:57:42.348Z,3.00
2022-09-06T04:00:12.439Z,2.47
2022-09-06T04:02:40.644Z,2.60
2022-09-06T04:05:09.830Z,2.60
2022-09-06T04:07:40.451Z,2.93
2022-09-06T04:10:09.885Z,2.70
2022-09-06T04:12:38.443Z,2.90
2022-09-06T04:15:09.011Z,2.63
2022-09-06T04:17:37.829Z,2.93
2022-09-06T04:20:07.310Z,2.77
2022-09-06T04:22:38.081Z,2.23
2022-09-06T04:25:09.648Z,2.70
2022-09-06T04:27:37.967Z,2.80
2022-09-06T04:30:08.999Z,2.73
2022-09-06T04:32:38.109Z,2.97
2022-09-06T04:35:07.841Z,2.70
2022-09-06T04:37:36.350Z,2.70
2022-09-06T04:40:05.118Z,2.80
2022-09-06T04:42:35.855Z,2.93
2022-09-06T04:45:04.116Z,2.80
2022-09-06T04:47:32.487Z,3.03
2022-09-06T04:50:00.995Z,3.07
2022-09-06T04:52:30.423Z,2.87
2022-09-06T04:54:58.691Z,2.60
2022-09-06T04:57:31.194Z,2.70
2022-09-06T05:00:04.350Z,2.77
2022-09-06T05:02:33.612Z,3.40
2022-09-06T05:05:02.346Z,2.97
2022-09-06T05:07:30.885Z,2.80
2022-09-06T05:09:59.128Z,3.00
2022-09-06T05:12:27.581Z,2.80
2022-09-06T05:14:55.891Z,2.83
2022-09-06T05:17:25.792Z,2.60
2022-09-06T05:19:55.191Z,2.70
2022-09-06T05:22:23.530Z,2.83
2022-09-06T05:24:51.717Z,2.80
2022-09-06T05:27:20.839Z,3.03
2022-09-06T05:29:49.185Z,2.97
2022-09-06T05:32:17.912Z,3.00
2022-09-06T05:34:48.113Z,3.20
2022-09-06T05:37:19.409Z,2.80
2022-09-06T05:39:47.878Z,3.00
2022-09-06T05:42:19.284Z,2.70
2022-09-06T05:44:48.279Z,3.07
2022-09-06T05:47:16.686Z,2.60
2022-09-06T05:49:46.458Z,2.77
2022-09-06T05:52:17.400Z,2.60
2022-09-06T05:54:45.631Z,2.57
2022-09-06T05:57:15.472Z,2.30
2022-09-06T05:59:43.919Z,2.90
2022-09-06T06:02:13.310Z,2.90
2022-09-06T06:04:41.776Z,2.63
2022-09-06T06:07:09.972Z,2.70
2022-09-06T06:09:39.961Z,2.57
2022-09-06T06:12:09.055Z,2.50
2022-09-06T06:14:40.264Z,2.53
2022-09-06T06:17:08.924Z,2.50
2022-09-06T06:19:37.685Z,2.63
2022-09-06T06:22:06.556Z,2.30
2022-09-06T06:24:36.233Z,2.47
2022-09-06T06:27:06.957Z,2.37
2022-09-06T06:29:37.532Z,2.47
2022-09-06T06:32:06.046Z,2.10
2022-09-06T06:34:34.531Z,2.80
2022-09-06T06:37:03.020Z,2.30
2022-09-06T06:39:33.356Z,2.50
2022-09-06T06:42:01.812Z,2.67
2022-09-06T06:44:31.639Z,2.60
2022-09-06T06:47:02.196Z,2.50
2022-09-06T06:49:31.068Z,2.50
2022-09-06T06:51:59.645Z,2.37
2022-09-06T06:54:28.087Z,2.37
2022-09-06T06:56:56.489Z,2.27
2022-09-06T06:59:25.128Z,2.70
2022-09-06T07:01:55.184Z,2.90
2022-09-06T07:04:25.366Z,2.90
2022-09-06T07:12:35.018Z,2.70
2022-09-06T07:15:03.785Z,2.42
2022-09-06T07:17:34.794Z,2.58
2022-09-06T07:22:42.847Z,2.33
2022-09-06T07:25:14.094Z,2.70
2022-09-06T07:30:15.736Z,2.53
2022-09-06T07:32:45.495Z,2.50
2022-09-06T07:35:14.192Z,2.27
2022-09-06T07:37:42.684Z,2.35
2022-09-06T07:40:12.506Z,2.50
2022-09-06T07:42:41.256Z,2.60
2022-09-06T07:45:10.702Z,2.15
2022-09-06T07:50:47.495Z,2.47
2022-09-06T07:53:24.770Z,2.25
2022-09-06T07:55:59.567Z,2.40
2022-09-06T07:58:30.338Z,2.20
2022-09-06T08:01:34.594Z,2.10
2022-09-06T08:04:05.799Z,2.10
2022-09-06T08:09:28.780Z,2.15
2022-09-06T08:11:57.532Z,2.20
2022-09-06T08:14:26.130Z,2.25
2022-09-06T08:16:54.642Z,2.08
2022-09-06T08:19:23.009Z,2.20
2022-09-06T08:21:56.475Z,2.10
2022-09-06T08:24:24.573Z,1.92
2022-09-06T08:26:53.196Z,1.92
2022-09-06T08:29:22.467Z,1.90
2022-09-06T08:31:51.159Z,2.15
2022-09-06T08:34:19.666Z,1.90
2022-09-06T08:36:48.140Z,2.10
2022-09-06T08:39:20.591Z,2.10
2022-09-06T08:41:54.394Z,2.13
2022-09-06T08:47:17.496Z,2.03
2022-09-06T08:49:50.320Z,1.98
2022-09-06T08:55:50.873Z,2.00
2022-09-06T08:58:37.114Z,2.05
2022-09-06T09:01:12.997Z,2.28
2022-09-06T09:03:45.118Z,1.90
2022-09-06T09:06:14.527Z,1.85
2022-09-06T09:08:50.972Z,2.10
2022-09-06T09:11:24.186Z,1.80
2022-09-06T09:13:56.469Z,1.88
2022-09-06T09:16:25.497Z,2.00
2022-09-06T09:18:56.915Z,1.70
2022-09-06T09:21:30.658Z,1.88
2022-09-06T09:24:04.179Z,1.63
2022-09-06T09:26:46.900Z,2.17
2022-09-06T09:29:17.271Z,1.90
2022-09-06T09:31:53.441Z,1.95
2022-09-06T09:34:31.634Z,1.88
2022-09-06T09:40:05.256Z,1.90
2022-09-06T09:42:37.621Z,2.00
2022-09-06T09:45:25.243Z,1.92
2022-09-06T09:47:53.455Z,1.90
2022-09-06T09:50:29.294Z,1.85
2022-09-06T09:52:57.718Z,1.70
2022-09-06T09:55:28.160Z,1.90
2022-09-06T09:57:58.459Z,1.98
2022-09-06T10:00:39.790Z,1.92
2022-09-06T10:03:15.490Z,1.90
2022-09-06T10:05:45.287Z,1.70
2022-09-06T10:08:15.849Z,1.70
2022-09-06T10:10:49.961Z,1.85
2022-09-06T10:13:24.615Z,1.75
2022-09-06T10:15:55.107Z,1.80
2022-09-06T10:18:35.070Z,1.67
2022-09-06T10:21:07.503Z,1.50
2022-09-06T10:26:52.545Z,1.77
2022-09-06T10:29:32.624Z,1.67
2022-09-06T10:32:13.617Z,1.85
2022-09-06T10:35:13.576Z,1.88
2022-09-06T10:37:48.981Z,1.80
2022-09-06T10:40:28.410Z,1.95
2022-09-06T10:43:01.753Z,1.88
2022-09-06T10:45:39.736Z,1.88
2022-09-06T10:48:14.961Z,1.80
2022-09-06T10:50:53.056Z,1.77
2022-09-06T10:53:35.451Z,1.75
2022-09-06T10:56:08.787Z,2.00
2022-09-06T11:01:45.273Z,1.90
2022-09-06T11:04:29.463Z,1.77
2022-09-06T11:07:03.608Z,1.92
2022-09-06T11:09:39.728Z,1.67
2022-09-06T11:12:15.761Z,1.70
2022-09-06T11:14:44.929Z,1.77
2022-09-06T11:17:23.236Z,1.83
2022-09-06T11:19:59.772Z,1.60
2022-09-06T11:22:45.955Z,1.58
2022-09-06T11:25:55.142Z,1.98
2022-09-06T11:28:33.332Z,1.90
2022-09-06T11:31:05.293Z,1.52
2022-09-06T11:33:40.015Z,1.80
2022-09-06T11:36:36.162Z,1.67
2022-09-06T11:39:08.431Z,1.80
2022-09-06T11:41:41.487Z,1.90
2022-09-06T11:44:12.068Z,1.90
2022-09-06T11:46:59.772Z,1.85
2022-09-06T11:49:42.008Z,1.60
2022-09-06T11:52:57.929Z,1.63
2022-09-06T11:55:32.779Z,1.77
2022-09-06T11:58:03.236Z,1.60
2022-09-06T12:00:32.823Z,1.60
2022-09-06T12:06:18.214Z,1.85
2022-09-06T12:08:47.485Z,1.90
2022-09-06T12:11:30.597Z,1.58
2022-09-06T12:14:03.379Z,1.40
2022-09-06T12:17:10.063Z,1.67
2022-09-06T12:19:53.146Z,1.55
2022-09-06T12:23:05.375Z,1.45
2022-09-06T12:25:58.906Z,1.52
2022-09-06T12:28:44.206Z,1.90
2022-09-06T12:31:40.619Z,1.40
2022-09-06T12:34:13.414Z,1.70
2022-09-06T12:36:56.921Z,1.70
2022-09-06T12:39:26.067Z,1.50
2022-09-06T12:41:58.490Z,1.30
2022-09-06T12:44:32.810Z,1.52
2022-09-06T12:47:08.368Z,1.70
2022-09-06T12:49:36.784Z,1.50
2022-09-06T12:52:12.635Z,1.67
2022-09-06T12:54:47.667Z,1.80
2022-09-06T12:57:27.833Z,1.60
2022-09-06T12:59:58.125Z,1.38
2022-09-06T13:02:33.618Z,1.50
2022-09-06T13:05:06.739Z,2.10
2022-09-06T13:07:40.364Z,1.45
2022-09-06T13:10:10.265Z,1.40
2022-09-06T13:12:44.107Z,1.40
2022-09-06T13:15:19.698Z,1.50
2022-09-06T13:17:48.378Z,1.45
2022-09-06T13:20:26.450Z,1.70
2022-09-06T13:23:06.514Z,1.48
2022-09-06T13:25:34.912Z,1.80
2022-09-06T13:28:05.083Z,1.30
2022-09-06T13:30:42.285Z,1.80
2022-09-06T13:33:24.860Z,1.30
2022-09-06T13:36:16.998Z,1.55
2022-09-06T13:38:46.348Z,1.48
2022-09-06T13:41:43.206Z,1.60
2022-09-06T13:44:31.603Z,1.60
2022-09-06T13:47:03.910Z,1.50
2022-09-06T13:49:34.097Z,1.67
2022-09-06T13:52:04.006Z,1.60
2022-09-06T13:54:33.693Z,1.60
2022-09-06T13:57:02.309Z,1.58
2022-09-06T13:59:33.287Z,1.67
2022-09-06T14:02:04.296Z,1.55
2022-09-06T14:04:32.845Z,1.42
2022-09-06T14:07:01.800Z,1.60
2022-09-06T14:09:29.979Z,1.60
2022-09-06T14:11:58.412Z,1.40
2022-09-06T14:14:26.960Z,1.70
2022-09-06T14:16:57.345Z,1.30
2022-09-06T14:19:25.726Z,1.52
2022-09-06T14:21:54.090Z,1.98
2022-09-06T14:24:24.109Z,1.20
2022-09-06T14:26:52.560Z,1.65
2022-09-06T14:29:21.062Z,1.27
2022-09-06T14:31:49.768Z,1.80
2022-09-06T14:34:22.409Z,1.80
2022-09-06T14:36:51.073Z,2.33
2022-09-06T14:39:19.838Z,1.60
2022-09-06T14:41:49.985Z,1.45
2022-09-06T14:44:18.442Z,1.50
2022-09-06T14:46:47.953Z,1.40
2022-09-06T14:49:17.841Z,1.65
2022-09-06T14:51:49.278Z,1.70
2022-09-06T14:54:17.557Z,1.40
2022-09-06T14:56:46.301Z,1.58
2022-09-06T14:59:14.889Z,1.83
2022-09-06T15:01:44.753Z,1.38
2022-09-06T15:04:13.897Z,1.70
2022-09-06T15:06:47.238Z,1.35
2022-09-06T15:09:17.552Z,1.90
2022-09-06T15:11:59.707Z,1.50
2022-09-06T15:14:29.776Z,2.10
2022-09-06T15:17:00.218Z,1.80
2022-09-06T15:19:30.236Z,1.70
2022-09-06T15:22:01.378Z,1.73
2022-09-06T15:24:32.591Z,1.58
2022-09-06T15:27:00.803Z,2.13
2022-09-06T15:29:30.147Z,1.90
2022-09-06T15:31:58.740Z,2.65
2022-09-06T15:34:27.702Z,1.70
2022-09-06T15:36:56.758Z,1.70
2022-09-06T15:39:25.395Z,1.88
2022-09-06T15:41:57.394Z,1.70
2022-09-06T15:44:26.994Z,1.90
2022-09-06T15:46:57.802Z,1.60
2022-09-06T15:49:29.200Z,2.70
2022-09-06T15:51:58.523Z,1.67
2022-09-06T15:54:40.687Z,2.15
2022-09-06T15:57:16.753Z,1.63
2022-09-06T15:59:45.601Z,1.73
2022-09-06T16:02:15.650Z,1.77
2022-09-06T16:04:44.459Z,1.88
2022-09-06T16:07:15.662Z,1.65
2022-09-06T16:09:44.222Z,1.70
2022-09-06T16:12:14.510Z,1.80
2022-09-06T16:14:43.068Z,1.70
2022-09-06T16:17:12.610Z,1.52
2022-09-06T16:19:41.269Z,1.98
2022-09-06T16:22:09.720Z,1.70
2022-09-06T16:24:38.161Z,1.70
2022-09-06T16:27:08.808Z,1.50
2022-09-06T16:29:38.936Z,1.80
2022-09-06T16:32:07.919Z,1.88
2022-09-06T16:34:38.054Z,1.92
2022-09-06T16:37:08.141Z,1.88
2022-09-06T16:39:37.863Z,1.70
2022-09-06T16:42:10.042Z,1.40
2022-09-06T16:44:48.097Z,1.30
2022-09-06T16:47:33.854Z,1.40
2022-09-06T16:50:04.001Z,1.35
2022-09-06T16:52:35.663Z,1.40
2022-09-06T16:55:04.351Z,1.25
2022-09-06T16:57:35.579Z,1.35
2022-09-06T17:00:07.911Z,1.27
2022-09-06T17:02:37.338Z,1.42
2022-09-06T17:05:06.695Z,1.50
2022-09-06T17:07:35.366Z,1.25
2022-09-06T17:10:04.116Z,1.30
2022-09-06T17:12:32.893Z,1.02
2022-09-06T17:15:01.849Z,1.08
2022-09-06T17:17:38.285Z,1.50
2022-09-06T17:20:10.238Z,0.98
2022-09-06T17:22:40.515Z,0.90
2022-09-06T17:25:09.057Z,1.25
2022-09-06T17:27:37.296Z,0.88
2022-09-06T17:30:06.497Z,0.90
2022-09-06T17:32:36.968Z,1.20
2022-09-06T17:35:05.896Z,1.17
2022-09-06T17:37:34.737Z,1.02
2022-09-06T17:40:04.522Z,1.33
2022-09-06T17:42:32.656Z,1.40
2022-09-06T17:45:02.105Z,1.10
2022-09-06T17:47:31.264Z,1.25
2022-09-06T17:50:01.708Z,1.10
2022-09-06T17:52:31.003Z,1.40
2022-09-06T17:54:59.611Z,1.48
2022-09-06T17:57:30.546Z,1.60
2022-09-06T17:59:59.283Z,1.40
2022-09-06T18:02:27.932Z,1.77
2022-09-06T18:05:00.255Z,1.27
2022-09-06T18:07:30.077Z,1.20
2022-09-06T18:09:58.828Z,1.27
2022-09-06T18:12:31.134Z,1.20
2022-09-06T18:14:59.743Z,1.40
2022-09-06T18:17:29.035Z,1.10
2022-09-06T18:19:57.845Z,1.40
2022-09-06T18:22:26.562Z,1.30
2022-09-06T18:24:58.310Z,1.70
2022-09-06T18:27:28.945Z,1.35
2022-09-06T18:29:59.547Z,1.85
2022-09-06T18:32:27.988Z,1.42
2022-09-06T18:34:56.779Z,1.40
2022-09-06T18:37:25.298Z,1.58
2022-09-06T18:39:53.987Z,1.40
2022-09-06T18:42:24.090Z,1.40
2022-09-06T18:44:52.447Z,1.00
2022-09-06T18:47:23.814Z,1.20
2022-09-06T18:49:52.487Z,1.17
2022-09-06T18:52:21.325Z,1.25
2022-09-06T18:54:50.643Z,1.25
2022-09-06T18:57:19.379Z,1.58
2022-09-06T18:59:52.216Z,1.38
2022-09-06T19:02:24.883Z,1.40
2022-09-06T19:04:54.622Z,1.30
2022-09-06T19:07:23.287Z,1.42
2022-09-06T19:09:51.759Z,1.30
2022-09-06T19:12:20.440Z,1.50
2022-09-06T19:14:50.510Z,1.77
2022-09-06T19:17:18.669Z,1.50
2022-09-06T19:19:47.372Z,1.55
2022-09-06T19:22:15.928Z,1.55
2022-09-06T19:24:44.624Z,1.58
2022-09-06T19:27:16.501Z,2.22
2022-09-06T19:29:47.181Z,2.10
2022-09-06T19:32:19.023Z,1.60
2022-09-06T19:34:50.698Z,1.75
2022-09-06T19:37:20.738Z,1.55
2022-09-06T19:39:49.937Z,1.63
2022-09-06T19:42:19.613Z,1.50
2022-09-06T19:44:49.718Z,1.80
2022-09-06T19:47:19.583Z,1.40
2022-09-06T19:49:47.819Z,1.42
2022-09-06T19:52:16.415Z,1.80
2022-09-06T19:54:45.271Z,1.80
2022-09-06T19:57:15.805Z,1.65
2022-09-06T19:59:44.345Z,2.20
2022-09-06T20:02:13.843Z,1.83
2022-09-06T20:04:43.959Z,1.90
2022-09-06T20:07:12.092Z,1.88
2022-09-06T20:09:40.672Z,1.80
2022-09-06T20:12:09.658Z,1.85
2022-09-06T20:14:38.092Z,1.65
2022-09-06T20:17:32.291Z,1.60
2022-09-06T20:19:57.267Z,1.60
2022-09-06T20:22:26.253Z,1.67
2022-09-06T20:24:54.738Z,1.58
2022-09-06T20:27:24.049Z,1.45
2022-09-06T20:29:52.876Z,1.58
2022-09-06T20:32:21.067Z,1.50
2022-09-06T20:34:49.443Z,1.60
2022-09-06T20:37:19.482Z,1.30
2022-09-06T20:39:47.593Z,1.50
2022-09-06T20:42:16.009Z,1.35
2022-09-06T20:44:44.787Z,1.58
2022-09-06T20:47:13.784Z,1.65
2022-09-06T20:49:44.638Z,1.70
2022-09-06T20:52:13.564Z,1.40
2022-09-06T20:54:45.729Z,1.80
2022-09-06T20:57:14.112Z,1.60
2022-09-06T20:59:42.323Z,1.60
2022-09-06T21:02:12.995Z,1.70
2022-09-06T21:04:41.713Z,1.80
2022-09-06T21:07:10.395Z,1.35
2022-09-06T21:09:38.582Z,1.55
2022-09-06T21:12:09.616Z,1.77
2022-09-06T21:14:37.875Z,1.50
2022-09-06T21:17:06.669Z,1.40
2022-09-06T21:19:37.016Z,1.50
2022-09-06T21:22:08.813Z,1.60
2022-09-06T21:24:37.512Z,1.75
2022-09-06T21:27:06.986Z,2.22
2022-09-06T21:29:36.879Z,1.80
2022-09-06T21:32:06.308Z,1.80
2022-09-06T21:34:34.719Z,1.40
2022-09-06T21:37:03.181Z,1.50
2022-09-06T21:39:32.164Z,1.40
2022-09-06T21:42:00.816Z,1.50
2022-09-06T21:44:31.176Z,1.83
2022-09-06T21:47:01.395Z,1.55
2022-09-06T21:49:29.598Z,1.50
2022-09-06T21:51:58.981Z,1.90
2022-09-06T21:54:28.573Z,1.70
2022-09-06T21:56:57.232Z,1.63
2022-09-06T21:59:27.587Z,1.70
2022-09-06T22:01:56.546Z,1.57
2022-09-06T22:04:28.318Z,1.80
2022-09-06T22:07:04.060Z,1.60
2022-09-06T22:09:32.819Z,2.00
2022-09-06T22:12:02.452Z,1.50
2022-09-06T22:14:32.917Z,1.80
2022-09-06T22:17:01.287Z,1.50
2022-09-06T22:19:31.094Z,1.80
2022-09-06T22:22:00.882Z,1.90
2022-09-06T22:24:30.266Z,1.90
2022-09-06T22:26:59.019Z,1.80
2022-09-06T22:29:28.228Z,2.03
2022-09-06T22:31:57.529Z,1.85
2022-09-06T22:34:26.252Z,1.40
2022-09-06T22:36:58.345Z,1.77
2022-09-06T22:39:36.782Z,2.10
2022-09-06T22:42:06.389Z,1.50
2022-09-06T22:44:34.943Z,2.17
2022-09-06T22:47:05.724Z,1.80
2022-09-06T22:49:34.810Z,2.10
2022-09-06T22:52:04.903Z,2.30
2022-09-06T22:54:33.276Z,1.83
2022-09-06T22:57:01.478Z,2.40
2022-09-06T22:59:29.922Z,2.40
2022-09-06T23:01:58.507Z,2.00
2022-09-06T23:04:26.788Z,1.60
2022-09-06T23:06:55.144Z,2.33
2022-09-06T23:09:26.071Z,2.00
2022-09-06T23:11:54.394Z,1.90
2022-09-06T23:14:23.065Z,1.70
2022-09-06T23:16:51.180Z,1.90
2022-09-06T23:19:19.600Z,1.67
2022-09-06T23:21:47.801Z,1.90
2022-09-06T23:24:16.324Z,2.10
2022-09-06T23:26:46.096Z,1.80
2022-09-06T23:29:14.609Z,1.97
2022-09-06T23:31:43.300Z,2.13
2022-09-06T23:34:11.745Z,1.90
2022-09-06T23:36:40.712Z,1.90
2022-09-06T23:39:09.363Z,2.03
2022-09-06T23:41:37.600Z,1.90
2022-09-06T23:44:07.729Z,2.20
2022-09-06T23:46:36.372Z,1.67
2022-09-06T23:49:04.966Z,1.80
2022-09-06T23:51:33.182Z,2.10
2022-09-06T23:54:01.668Z,2.27
2022-09-06T23:56:30.500Z,1.70
2022-09-06T23:58:58.714Z,1.80
